Impacts METAR Board INFO
IDs:

KMCO - Orlando Intl, FL, US

Updated at: 1456 UTC 14 Dec 2017
Potential Impact None Slight Moderate High
Time14/02Z 14/03Z 14/04Z 14/05Z 14/06Z 14/07Z 14/08Z 14/09Z 14/10Z 14/11Z 14/12Z 14/13Z 14/14Z
VIS10 10 10 10 10 10 10 10 10 10 10 10 10
CIG-- 250 -- -- -- -- -- -- -- -- -- -- --
CoverFEWBKNFEWSCTFEWCLRFEWFEWFEWCLRFEWFEWFEW
FltCatVFRVFRVFRVFRVFRVFRVFRVFRVFRVFRVFRVFRVFR
WX--------------------------
WDir260260250230220000180190200200200
WSpd6 8 5 3 4 0 0 0 3 5 4 4 6
WGst-- -- -- -- -- -- -- -- -- -- -- -- --
Raw hourly METARs
KMCO 140153Z 26006KT 10SM FEW250 10/M02 A3007 RMK AO2 SLP182 T01001017
KMCO 140253Z 26008KT 10SM BKN250 09/M01 A3008 RMK AO2 SLP185 T00891011 53002
KMCO 140353Z 25005KT 10SM FEW250 08/M01 A3008 RMK AO2 SLP184 T00781011
KMCO 140453Z 23003KT 10SM SCT250 06/00 A3006 RMK AO2 SLP179 T00560000 401720044
KMCO 140553Z 22004KT 10SM FEW250 04/01 A3005 RMK AO2 SLP174 T00390011 10128 20028 58011
KMCO 140653Z 00000KT 10SM CLR 04/02 A3005 RMK AO2 SLP174 T00440017
KMCO 140753Z 00000KT 10SM FEW250 05/02 A3004 RMK AO2 SLP172 T00500017
KMCO 140853Z 00000KT 10SM FEW030 FEW250 06/02 A3004 RMK AO2 SLP172 T00560022 56002
KMCO 140953Z 18003KT 10SM FEW035 FEW250 06/04 A3003 RMK AO2 SLP170 T00610039
KMCO 141053Z 19005KT 10SM CLR 06/04 A3004 RMK AO2 SLP170 T00560044
KMCO 141153Z 20004KT 10SM FEW035 FEW250 07/06 A3005 RMK AO2 SLP176 T00720061 10072 20039 53004
KMCO 141253Z 20004KT 10SM FEW035 FEW080 FEW250 08/08 A3006 RMK AO2 SLP179 T00830078
KMCO 141353Z 20006KT 10SM FEW080 FEW250 12/10 A3006 RMK AO2 SLP179 T01220100